Kimberling City, Missouri
Current Conditions -  °F | °C
As of 9:15 PM on Saturday 20 Dec 2014 (Local Time) from KFWB Reporting Station
Haze Haze  
Wind Chill:   Ceiling: 2300
Heat Index:   Visibility: 4mi
Dew Point:   Wind: 3mph
Humidity: 100%   Direction: 120°ESE
Pressure: 30.2"   Gusts: NA
Location:  36.63°N, 93.42°W
Report Text: KFWB 210315Z AUTO 12003KT 4SM BR FEW013 OVC023 04/04 A3020 RMK AO2
Loading
Personal Weather Stations






























Interactive Weather Map New forecast layout! Learn more

10-Day Weather Forecast

Advertisements
Track Severe Weather on mobile